Time;durP1;ratioP1;P1;durP2;ratioP2;P2;SDS_P1;SDS_P2;PMS_P1;PMS_P2;Temp;Humidity;BMP_temperature;BMP_pressure;BME280_temperature;BME280_humidity;BME280_pressure;Samples;Min_cycle;Max_cycle;Signal;HPM_P1;HPM_P2
2021/04/26 00:02:01;;;;;;;4.10;2.50;;;3.80;1.00;;;;;;5111287;27;20238;-81
2021/04/26 00:04:27;;;;;;;2.35;1.80;;;3.80;1.00;;;;;;5111294;27;20314;-84
2021/04/26 00:06:53;;;;;;;3.13;1.67;;;3.80;1.00;;;;;;5127395;27;20250;-81
2021/04/26 00:09:21;;;;;;;2.72;2.00;;;3.80;1.00;;;;;;5129567;27;20237;-79
2021/04/26 00:11:48;;;;;;;3.60;1.98;;;3.70;1.00;;;;;;5109924;27;20211;-81
2021/04/26 00:14:15;;;;;;;3.20;1.85;;;3.70;1.00;;;;;;5135349;27;20221;-82
2021/04/26 00:16:41;;;;;;;2.30;1.70;;;3.70;1.00;;;;;;5121651;27;20237;-80
2021/04/26 00:19:08;;;;;;;3.38;2.10;;;3.70;1.00;;;;;;5126613;27;20686;-81
2021/04/26 00:21:34;;;;;;;2.05;1.85;;;3.70;1.00;;;;;;5122611;27;21118;-82
2021/04/26 00:24:01;;;;;;;3.03;2.05;;;3.80;1.00;;;;;;5128976;27;20218;-80
2021/04/26 00:26:27;;;;;;;5.57;1.90;;;3.80;1.00;;;;;;5132367;27;20223;-80
2021/04/26 00:28:54;;;;;;;1.80;1.70;;;3.80;1.00;;;;;;5113718;27;20224;-80
2021/04/26 00:31:21;;;;;;;2.13;1.63;;;3.80;1.00;;;;;;5103675;27;20227;-83
2021/04/26 00:33:47;;;;;;;2.83;1.88;;;3.90;1.00;;;;;;5119667;27;20288;-79
2021/04/26 00:36:13;;;;;;;5.10;2.08;;;4.00;1.00;;;;;;5133345;27;20223;-79
2021/04/26 00:38:40;;;;;;;3.50;2.17;;;4.00;1.00;;;;;;5127721;27;20237;-80
2021/04/26 00:41:06;;;;;;;2.88;2.35;;;4.00;1.00;;;;;;5105196;27;20265;-81
2021/04/26 00:43:32;;;;;;;4.72;2.17;;;4.00;1.00;;;;;;5112060;27;20231;-79
2021/04/26 00:46:00;;;;;;;1.98;1.52;;;4.00;1.00;;;;;;5130596;27;20226;-82
2021/04/26 00:48:26;;;;;;;2.95;2.20;;;4.00;1.00;;;;;;5129040;27;20242;-81
2021/04/26 00:50:53;;;;;;;2.17;1.85;;;3.90;1.00;;;;;;5146653;27;20239;-80
2021/04/26 00:53:20;;;;;;;4.05;2.42;;;4.00;1.00;;;;;;5125773;27;20207;-80
2021/04/26 00:55:48;;;;;;;3.75;2.10;;;3.90;1.00;;;;;;5134066;27;20234;-82
2021/04/26 00:58:15;;;;;;;2.42;1.80;;;3.90;1.00;;;;;;5127387;27;20231;-83
2021/04/26 01:00:41;;;;;;;6.07;1.85;;;3.90;1.00;;;;;;5129096;27;20226;-82
2021/04/26 01:03:09;;;;;;;2.50;1.70;;;3.80;1.00;;;;;;5127849;27;20223;-82
2021/04/26 01:05:36;;;;;;;1.88;1.30;;;3.80;1.00;;;;;;5130512;27;20337;-82
2021/04/26 01:08:04;;;;;;;4.97;2.03;;;3.90;1.00;;;;;;5121090;27;20230;-80
2021/04/26 01:10:34;;;;;;;2.65;1.45;;;3.90;1.00;;;;;;5095436;27;20230;-82
2021/04/26 01:13:18;;;;;;;1.98;1.50;;;4.00;1.00;;;;;;5135158;27;20216;-82
2021/04/26 01:15:52;;;;;;;2.53;1.23;;;4.00;1.00;;;;;;5132860;27;20634;-80
2021/04/26 01:18:25;;;;;;;2.40;1.60;;;4.00;1.00;;;;;;5117317;27;20230;-82
2021/04/26 01:21:09;;;;;;;2.60;1.27;;;4.00;1.00;;;;;;5131517;27;20219;-82
2021/04/26 01:24:27;;;;;;;3.47;1.70;;;4.00;1.00;;;;;;5147214;27;20250;-78
2021/04/26 01:27:14;;;;;;;5.72;1.30;;;4.00;1.00;;;;;;5129498;27;20199;-79
2021/04/26 01:29:59;;;;;;;2.47;1.42;;;3.90;1.00;;;;;;5153948;27;20487;-79
2021/04/26 01:32:31;;;;;;;2.38;1.38;;;3.90;1.00;;;;;;5151432;27;20210;-79
2021/04/26 01:34:59;;;;;;;1.17;1.00;;;3.90;1.00;;;;;;5138360;27;20223;-79
2021/04/26 01:37:27;;;;;;;3.35;1.38;;;3.90;1.00;;;;;;5154188;27;20212;-77
2021/04/26 01:39:55;;;;;;;3.95;1.60;;;3.90;1.00;;;;;;5156960;27;20215;-79
2021/04/26 01:42:22;;;;;;;1.98;1.50;;;3.90;1.00;;;;;;5136003;27;20279;-78
2021/04/26 01:44:49;;;;;;;1.77;1.15;;;3.90;1.00;;;;;;5134940;27;20237;-78
2021/04/26 01:47:16;;;;;;;1.75;1.13;;;3.80;1.00;;;;;;5152015;27;20219;-80
2021/04/26 01:49:44;;;;;;;2.85;1.60;;;3.80;1.00;;;;;;5148526;27;20211;-79
2021/04/26 01:52:11;;;;;;;2.42;1.10;;;3.80;1.00;;;;;;5155313;27;20245;-78
2021/04/26 01:54:39;;;;;;;1.83;1.30;;;3.80;1.00;;;;;;5149208;27;20232;-80
2021/04/26 01:57:06;;;;;;;1.98;1.63;;;3.80;1.00;;;;;;5149171;27;20234;-80
2021/04/26 01:59:36;;;;;;;2.33;1.40;;;3.70;1.00;;;;;;5136570;27;20227;-79
2021/04/26 02:02:03;;;;;;;2.10;1.10;;;3.70;1.00;;;;;;5146859;27;20215;-79
2021/04/26 02:04:33;;;;;;;1.83;1.10;;;3.70;1.00;;;;;;5145598;27;20212;-80
2021/04/26 02:07:01;;;;;;;2.85;1.40;;;3.70;1.00;;;;;;5126315;27;20207;-80
2021/04/26 02:09:29;;;;;;;2.38;1.30;;;3.60;1.00;;;;;;5144190;27;20226;-81
2021/04/26 02:11:57;;;;;;;1.27;1.00;;;3.60;1.00;;;;;;5145583;27;20210;-81
2021/04/26 02:14:26;;;;;;;2.60;1.23;;;3.60;1.00;;;;;;5138916;27;20210;-79
2021/04/26 02:16:53;;;;;;;2.85;1.23;;;3.60;1.00;;;;;;5120897;27;20226;-79
2021/04/26 02:19:20;;;;;;;3.15;2.00;;;3.50;1.00;;;;;;5125937;27;20223;-79
2021/04/26 02:21:46;;;;;;;1.50;1.25;;;3.40;1.00;;;;;;5124599;27;20219;-81
2021/04/26 02:24:13;;;;;;;1.73;1.27;;;3.40;1.00;;;;;;5123379;27;20227;-79
2021/04/26 02:26:40;;;;;;;2.20;1.50;;;3.40;1.00;;;;;;5120933;27;20322;-80
2021/04/26 02:29:06;;;;;;;3.05;1.30;;;3.40;1.00;;;;;;5123775;27;20242;-82
2021/04/26 02:31:34;;;;;;;2.75;1.52;;;3.30;1.00;;;;;;5121090;27;20278;-80
2021/04/26 02:34:10;;;;;;;2.25;1.45;;;3.30;1.00;;;;;;5125445;27;20225;-81
2021/04/26 02:36:43;;;;;;;2.40;1.30;;;3.20;1.00;;;;;;5105263;27;20210;-82
2021/04/26 02:39:10;;;;;;;2.53;1.52;;;3.20;1.00;;;;;;5123756;27;20238;-83
2021/04/26 02:41:41;;;;;;;3.53;1.67;;;3.10;1.00;;;;;;5105438;27;20750;-83
2021/04/26 02:44:14;;;;;;;1.90;1.42;;;3.00;1.00;;;;;;5124919;27;20211;-82
2021/04/26 02:46:41;;;;;;;10.77;2.08;;;3.00;1.00;;;;;;5125935;27;20219;-81
2021/04/26 02:49:08;;;;;;;4.93;1.85;;;2.90;1.00;;;;;;5145812;27;20984;-82
2021/04/26 02:51:37;;;;;;;5.45;5.05;;;2.90;1.00;;;;;;5152971;27;20223;-81
2021/04/26 02:54:04;;;;;;;1.88;1.58;;;2.80;1.00;;;;;;5129650;27;20234;-81
2021/04/26 02:56:35;;;;;;;10.50;2.58;;;2.80;1.00;;;;;;5133052;27;20234;-81
2021/04/26 02:59:06;;;;;;;3.25;1.50;;;2.90;1.00;;;;;;5133209;27;20235;-82
2021/04/26 03:01:33;;;;;;;2.78;1.48;;;2.90;1.00;;;;;;5122163;27;20239;-82
2021/04/26 03:04:00;;;;;;;4.45;1.55;;;2.80;1.00;;;;;;5129782;27;20215;-82
2021/04/26 03:06:27;;;;;;;2.42;1.42;;;2.80;1.00;;;;;;5109666;27;20242;-83
2021/04/26 03:08:55;;;;;;;5.53;1.92;;;2.80;1.00;;;;;;5122899;27;20219;-82
2021/04/26 03:11:22;;;;;;;7.15;2.00;;;2.80;1.00;;;;;;5122640;27;20805;-82
2021/04/26 03:13:49;;;;;;;4.05;1.73;;;2.80;1.00;;;;;;5123869;27;20230;-80
2021/04/26 03:16:17;;;;;;;2.67;1.42;;;2.80;1.00;;;;;;5121076;27;20222;-79
2021/04/26 03:18:44;;;;;;;3.90;2.22;;;2.70;1.00;;;;;;5105135;27;20235;-84
2021/04/26 03:21:12;;;;;;;3.70;1.83;;;2.80;1.00;;;;;;5120411;27;20255;-82
2021/04/26 03:23:39;;;;;;;6.63;2.70;;;2.70;1.00;;;;;;5125067;27;21076;-82
2021/04/26 03:26:08;;;;;;;4.10;1.70;;;2.70;1.00;;;;;;5127265;27;20275;-83
2021/04/26 03:28:37;;;;;;;5.45;2.85;;;2.70;1.00;;;;;;5138698;27;20699;-81
2021/04/26 03:31:04;;;;;;;3.53;1.50;;;2.70;1.00;;;;;;5130297;27;20289;-84
2021/04/26 03:33:33;;;;;;;3.58;2.40;;;2.70;1.00;;;;;;5120748;27;20218;-83
2021/04/26 03:36:00;;;;;;;2.90;2.25;;;2.70;1.00;;;;;;5130129;27;20215;-83
2021/04/26 03:38:27;;;;;;;7.82;2.28;;;2.70;1.00;;;;;;5120642;27;20830;-83
2021/04/26 03:40:55;;;;;;;6.40;2.40;;;2.70;1.00;;;;;;5118729;27;20299;-83
2021/04/26 03:43:21;;;;;;;4.88;2.50;;;2.70;1.00;;;;;;5124120;27;20219;-81
2021/04/26 03:45:49;;;;;;;3.88;2.42;;;2.60;1.00;;;;;;5122252;27;20225;-83
2021/04/26 03:48:15;;;;;;;7.90;3.05;;;2.60;1.00;;;;;;5140404;27;20191;-79
2021/04/26 03:50:43;;;;;;;9.85;3.35;;;2.60;1.00;;;;;;5145912;27;20210;-80
2021/04/26 03:53:09;;;;;;;9.07;5.05;;;2.60;1.00;;;;;;5126505;27;20225;-82
2021/04/26 03:55:36;;;;;;;6.05;2.90;;;2.60;1.00;;;;;;5104726;27;20707;-80
2021/04/26 03:58:02;;;;;;;4.32;2.35;;;2.50;1.00;;;;;;5102208;27;20278;-81
2021/04/26 04:00:29;;;;;;;4.53;2.40;;;2.50;1.00;;;;;;5119562;27;20216;-81
2021/04/26 04:02:55;;;;;;;4.90;2.45;;;2.40;1.00;;;;;;5109941;27;20227;-80
2021/04/26 04:05:22;;;;;;;7.55;2.83;;;2.50;1.00;;;;;;5132731;27;20276;-81
2021/04/26 04:07:49;;;;;;;10.73;3.20;;;2.50;1.00;;;;;;5127080;27;20231;-80
2021/04/26 04:10:16;;;;;;;7.30;3.20;;;2.50;1.00;;;;;;5120312;27;20231;-80
2021/04/26 04:12:43;;;;;;;5.35;2.30;;;2.50;1.00;;;;;;5125599;27;20230;-82
2021/04/26 04:15:10;;;;;;;7.43;4.60;;;2.60;1.00;;;;;;5131165;27;20210;-79
2021/04/26 04:17:38;;;;;;;3.55;2.65;;;2.60;1.00;;;;;;5127585;27;20234;-76
2021/04/26 04:20:07;;;;;;;4.97;4.20;;;2.70;1.00;;;;;;5119124;27;20219;-79
2021/04/26 04:22:33;;;;;;;7.40;3.60;;;2.60;1.00;;;;;;5125663;27;21148;-79
2021/04/26 04:25:01;;;;;;;13.40;3.67;;;2.60;1.00;;;;;;5125415;27;20223;-80
2021/04/26 04:27:27;;;;;;;8.20;3.33;;;2.60;1.00;;;;;;5129965;27;20219;-81
2021/04/26 04:29:53;;;;;;;8.32;3.22;;;2.70;1.00;;;;;;5107139;27;20228;-79
2021/04/26 04:32:20;;;;;;;7.88;3.15;;;2.70;1.00;;;;;;5109917;27;20246;-78
2021/04/26 04:34:46;;;;;;;6.97;4.65;;;2.60;1.00;;;;;;5128455;27;20234;-79
2021/04/26 04:37:13;;;;;;;7.82;3.35;;;2.70;1.00;;;;;;5105002;27;20558;-80
2021/04/26 04:39:39;;;;;;;13.35;5.05;;;2.70;1.00;;;;;;5112699;27;20339;-79
2021/04/26 04:42:07;;;;;;;6.95;3.30;;;2.70;1.00;;;;;;5117903;27;20272;-79
2021/04/26 04:44:33;;;;;;;10.68;3.33;;;2.80;1.00;;;;;;5128714;27;20223;-78
2021/04/26 04:46:59;;;;;;;6.55;3.10;;;2.90;1.00;;;;;;5146966;27;20223;-77
2021/04/26 04:49:26;;;;;;;10.38;4.90;;;2.90;1.00;;;;;;5144209;27;21282;-77
2021/04/26 04:51:52;;;;;;;6.85;2.50;;;3.00;1.00;;;;;;5138721;27;20240;-76
2021/04/26 04:54:18;;;;;;;5.78;5.28;;;3.00;1.00;;;;;;5124001;27;20799;-76
2021/04/26 04:56:45;;;;;;;7.25;3.28;;;3.10;1.00;;;;;;5114442;27;20222;-78
2021/04/26 04:59:13;;;;;;;12.05;4.10;;;3.10;1.00;;;;;;5119199;27;20243;-78
2021/04/26 05:01:39;;;;;;;4.25;2.92;;;3.10;1.00;;;;;;5099028;27;20280;-78
2021/04/26 05:04:06;;;;;;;5.20;3.05;;;3.20;1.00;;;;;;5120525;27;20311;-78
2021/04/26 05:06:32;;;;;;;10.52;4.68;;;3.30;1.00;;;;;;5128521;27;20257;-76
2021/04/26 05:08:58;;;;;;;3.20;2.90;;;3.30;1.00;;;;;;5109542;27;20351;-77
2021/04/26 05:11:24;;;;;;;10.13;4.45;;;3.30;1.00;;;;;;5120809;27;20305;-78
2021/04/26 05:13:51;;;;;;;8.52;3.35;;;3.40;1.00;;;;;;5121599;27;20227;-77
2021/04/26 05:16:18;;;;;;;10.52;4.85;;;3.50;1.00;;;;;;5116133;27;20295;-77
2021/04/26 05:18:44;;;;;;;9.52;3.00;;;3.60;1.00;;;;;;5117551;27;21088;-77
2021/04/26 05:21:10;;;;;;;6.00;2.40;;;3.60;1.00;;;;;;5100011;27;21525;-77
2021/04/26 05:23:36;;;;;;;9.82;3.92;;;3.70;1.00;;;;;;5122996;27;20218;-76
2021/04/26 05:26:03;;;;;;;5.85;2.78;;;3.70;1.00;;;;;;5120836;27;20214;-77
2021/04/26 05:28:29;;;;;;;4.93;3.00;;;3.80;1.00;;;;;;5128967;27;20850;-76
2021/04/26 05:30:55;;;;;;;15.82;10.63;;;3.80;1.00;;;;;;5119565;27;20241;-76
2021/04/26 05:33:22;;;;;;;6.43;2.67;;;3.90;1.00;;;;;;5121686;27;20202;-77
2021/04/26 05:35:48;;;;;;;3.63;2.40;;;4.10;1.00;;;;;;5121940;27;20275;-77
2021/04/26 05:38:16;;;;;;;4.55;2.40;;;4.10;1.00;;;;;;5123049;27;20432;-77
2021/04/26 05:40:45;;;;;;;6.75;3.50;;;4.20;1.00;;;;;;5122995;27;20310;-78
2021/04/26 05:43:11;;;;;;;3.10;2.80;;;4.40;1.00;;;;;;5119825;27;20653;-77
2021/04/26 05:45:38;;;;;;;5.57;2.10;;;4.50;1.00;;;;;;5121582;27;20214;-78
2021/04/26 05:48:05;;;;;;;3.60;2.28;;;4.60;1.00;;;;;;5122443;27;20269;-79
2021/04/26 05:50:32;;;;;;;9.30;4.75;;;4.70;1.00;;;;;;5126380;27;21347;-77
2021/04/26 05:52:59;;;;;;;5.30;2.70;;;4.80;1.00;;;;;;5122999;27;20218;-77
2021/04/26 05:55:26;;;;;;;4.50;2.13;;;4.90;1.00;;;;;;5120901;27;20278;-78
2021/04/26 05:57:52;;;;;;;4.43;2.15;;;5.00;1.00;;;;;;5120972;27;20226;-77
2021/04/26 06:00:19;;;;;;;2.80;2.15;;;5.20;1.00;;;;;;5118178;27;20227;-77
2021/04/26 06:02:46;;;;;;;3.85;2.42;;;5.40;1.00;;;;;;5115218;27;20236;-77
2021/04/26 06:05:12;;;;;;;6.97;2.75;;;5.50;1.00;;;;;;5113098;27;20231;-77
2021/04/26 06:07:41;;;;;;;7.30;3.05;;;5.70;1.00;;;;;;5117900;27;20219;-77
2021/04/26 06:10:09;;;;;;;11.15;4.32;;;5.80;1.00;;;;;;5113706;27;20253;-77
2021/04/26 06:12:35;;;;;;;68.70;21.95;;;5.90;1.00;;;;;;5117563;27;20229;-81
2021/04/26 06:15:02;;;;;;;13.25;3.83;;;6.00;1.00;;;;;;5105394;27;20223;-80
2021/04/26 06:17:28;;;;;;;9.98;2.67;;;6.20;1.00;;;;;;5129359;27;20234;-80
2021/04/26 06:19:54;;;;;;;8.15;2.30;;;6.30;1.00;;;;;;5127867;27;20289;-78
2021/04/26 06:22:20;;;;;;;9.30;3.00;;;6.40;1.00;;;;;;5130576;27;20227;-79
2021/04/26 06:24:48;;;;;;;8.57;4.85;;;6.40;1.00;;;;;;5129310;27;20218;-75
2021/04/26 06:27:14;;;;;;;5.57;2.13;;;6.50;1.00;;;;;;5126780;27;20300;-77
2021/04/26 06:29:40;;;;;;;2.63;2.13;;;6.70;1.00;;;;;;5126012;27;21025;-77
2021/04/26 06:32:07;;;;;;;12.18;2.60;;;6.80;1.00;;;;;;5120213;27;20230;-78
2021/04/26 06:34:33;;;;;;;3.58;1.52;;;6.90;1.00;;;;;;5121030;27;20228;-77
2021/04/26 06:36:59;;;;;;;6.90;2.30;;;7.00;1.00;;;;;;5118431;27;20243;-78
2021/04/26 06:39:26;;;;;;;3.67;1.83;;;7.00;1.00;;;;;;5126404;27;20270;-78
2021/04/26 06:41:53;;;;;;;4.50;2.30;;;7.00;1.00;;;;;;5119477;27;20236;-78
2021/04/26 06:44:19;;;;;;;2.08;1.52;;;7.10;1.00;;;;;;5121544;27;20245;-77
2021/04/26 06:46:45;;;;;;;13.88;5.72;;;7.00;1.00;;;;;;5133551;27;20234;-78
2021/04/26 06:49:11;;;;;;;7.68;2.10;;;7.00;1.00;;;;;;5129624;27;20293;-77
2021/04/26 06:51:37;;;;;;;8.70;3.35;;;7.00;1.00;;;;;;5128396;27;20377;-74
2021/04/26 06:54:04;;;;;;;4.45;2.08;;;7.10;1.00;;;;;;5118313;27;20331;-76
2021/04/26 06:56:31;;;;;;;8.30;2.40;;;7.20;1.00;;;;;;5136626;27;20256;-79
2021/04/26 06:58:58;;;;;;;6.50;2.28;;;7.30;1.00;;;;;;5143354;27;20278;-79
2021/04/26 07:01:25;;;;;;;5.25;1.73;;;7.40;1.00;;;;;;5121912;27;20989;-79
2021/04/26 07:03:51;;;;;;;4.32;2.45;;;7.40;1.00;;;;;;5149502;27;20227;-80
2021/04/26 07:06:17;;;;;;;6.22;2.80;;;7.50;1.00;;;;;;5151789;27;20233;-78
2021/04/26 07:08:44;;;;;;;4.75;1.95;;;7.60;1.00;;;;;;5132221;27;20234;-78
2021/04/26 07:11:10;;;;;;;4.88;2.88;;;7.70;1.00;;;;;;5124832;27;20227;-79
2021/04/26 07:13:36;;;;;;;3.08;2.33;;;7.70;1.00;;;;;;5143206;27;20222;-79
2021/04/26 07:16:04;;;;;;;5.75;1.55;;;7.70;1.00;;;;;;5136709;27;20225;-79
2021/04/26 07:18:30;;;;;;;2.97;1.40;;;7.80;1.00;;;;;;5136737;27;20215;-79
2021/04/26 07:20:57;;;;;;;6.18;2.33;;;7.70;1.00;;;;;;5127161;27;20228;-78
2021/04/26 07:23:23;;;;;;;4.00;1.92;;;7.80;1.00;;;;;;5141029;27;21109;-75
2021/04/26 07:25:50;;;;;;;3.92;2.17;;;7.90;1.00;;;;;;5132425;27;20246;-76
2021/04/26 07:28:18;;;;;;;6.55;1.90;;;7.90;1.00;;;;;;5132126;27;20388;-76
2021/04/26 07:30:44;;;;;;;2.85;2.33;;;8.00;1.00;;;;;;5128426;27;20223;-78
2021/04/26 07:33:13;;;;;;;2.50;2.30;;;8.20;1.00;;;;;;5122958;27;20511;-78
2021/04/26 07:35:39;;;;;;;4.75;1.77;;;8.30;1.00;;;;;;5114061;27;20226;-79
2021/04/26 07:38:06;;;;;;;6.00;3.78;;;8.40;1.00;;;;;;5124952;27;20230;-77
2021/04/26 07:40:32;;;;;;;4.47;2.30;;;8.50;1.00;;;;;;5116876;27;20218;-77
2021/04/26 07:42:58;;;;;;;5.78;2.08;;;8.60;1.00;;;;;;5117648;27;20225;-77
2021/04/26 07:45:24;;;;;;;3.55;1.85;;;8.70;1.00;;;;;;5119164;27;21072;-77
2021/04/26 07:47:54;;;;;;;7.03;2.67;;;8.80;1.00;;;;;;5101775;27;20254;-76
2021/04/26 07:50:22;;;;;;;4.32;2.10;;;8.90;1.00;;;;;;5098011;27;20227;-78
2021/04/26 07:52:48;;;;;;;2.75;1.70;;;9.10;1.00;;;;;;5121657;27;20753;-77
2021/04/26 07:55:15;;;;;;;3.92;2.88;;;9.20;1.00;;;;;;5126067;27;20681;-77
2021/04/26 07:57:41;;;;;;;3.85;2.13;;;9.20;1.00;;;;;;5138053;27;20239;-77
2021/04/26 08:00:09;;;;;;;5.53;1.48;;;9.30;1.00;;;;;;5134574;27;20313;-77
2021/04/26 08:02:36;;;;;;;2.17;1.20;;;9.20;1.00;;;;;;5137226;27;20219;-77
2021/04/26 08:05:04;;;;;;;3.35;1.10;;;9.30;1.00;;;;;;5130986;27;20404;-79
2021/04/26 08:07:31;;;;;;;4.03;1.60;;;9.40;1.00;;;;;;5129203;27;20780;-76
2021/04/26 08:09:57;;;;;;;3.50;2.08;;;9.40;1.00;;;;;;5119324;27;20245;-78
2021/04/26 08:12:23;;;;;;;4.45;2.15;;;9.50;1.00;;;;;;5123975;27;20219;-77
2021/04/26 08:14:50;;;;;;;2.67;1.00;;;9.60;1.00;;;;;;5104349;27;20230;-80
2021/04/26 08:17:16;;;;;;;1.75;1.40;;;9.70;1.00;;;;;;5122498;27;20269;-76
2021/04/26 08:19:43;;;;;;;6.75;1.80;;;9.80;1.00;;;;;;5118188;27;20557;-77
2021/04/26 08:22:10;;;;;;;2.22;1.35;;;9.90;1.00;;;;;;5119338;27;20636;-76
2021/04/26 08:24:38;;;;;;;2.20;1.27;;;10.10;1.00;;;;;;5129659;27;20215;-76
2021/04/26 08:27:04;;;;;;;2.78;1.60;;;10.20;1.00;;;;;;5124397;27;20277;-75
2021/04/26 08:29:31;;;;;;;1.13;1.02;;;10.30;1.00;;;;;;5132926;27;20251;-74
2021/04/26 08:31:57;;;;;;;4.60;2.00;;;10.30;1.00;;;;;;5131049;27;20281;-76
2021/04/26 08:34:24;;;;;;;1.67;1.50;;;10.30;1.00;;;;;;5132926;27;20288;-77
2021/04/26 08:36:50;;;;;;;6.82;2.45;;;10.40;1.00;;;;;;5131480;27;20766;-76
2021/04/26 08:39:17;;;;;;;1.75;1.23;;;10.50;1.00;;;;;;5136587;27;20244;-77
2021/04/26 08:41:46;;;;;;;2.83;1.42;;;10.50;1.00;;;;;;5130852;27;20264;-78
2021/04/26 08:44:13;;;;;;;3.35;1.90;;;10.70;1.00;;;;;;5134158;27;20714;-75
2021/04/26 08:46:43;;;;;;;13.25;3.10;;;10.80;1.00;;;;;;5136429;27;20238;-76
2021/04/26 08:49:10;;;;;;;4.63;1.50;;;10.70;1.00;;;;;;5117816;27;20247;-76
2021/04/26 08:51:38;;;;;;;1.35;1.23;;;10.60;1.00;;;;;;5136171;27;20250;-77
2021/04/26 08:54:05;;;;;;;13.67;3.10;;;10.70;1.00;;;;;;5130756;27;20291;-77
2021/04/26 08:56:32;;;;;;;5.30;2.53;;;10.90;1.00;;;;;;5127466;27;20969;-78
2021/04/26 08:59:00;;;;;;;3.37;1.97;;;11.20;1.00;;;;;;5122442;27;20240;-78
2021/04/26 09:01:26;;;;;;;2.50;1.30;;;11.40;1.00;;;;;;5136053;27;20458;-80
2021/04/26 09:03:52;;;;;;;4.80;1.35;;;11.60;1.00;;;;;;5141872;27;20291;-80
2021/04/26 09:06:19;;;;;;;2.73;1.63;;;11.80;1.00;;;;;;5130329;27;20332;-79
2021/04/26 09:08:49;;;;;;;2.60;1.47;;;11.90;1.00;;;;;;5118102;27;20483;-81
2021/04/26 09:11:16;;;;;;;6.30;1.30;;;11.90;1.00;;;;;;5130063;27;20435;-80
2021/04/26 09:13:45;;;;;;;8.43;2.27;;;11.90;1.00;;;;;;5113715;27;20220;-80
2021/04/26 09:16:18;;;;;;;2.13;1.30;;;12.10;1.00;;;;;;5125548;27;21087;-76
2021/04/26 09:18:51;;;;;;;3.30;1.83;;;12.10;1.00;;;;;;5130156;27;20536;-77
2021/04/26 09:21:20;;;;;;;6.30;1.40;;;12.30;1.00;;;;;;5128227;27;21274;-78
2021/04/26 09:24:07;;;;;;;2.67;2.20;;;12.70;1.00;;;;;;5132129;27;20437;-82
2021/04/26 09:26:33;;;;;;;2.60;1.97;;;13.00;1.00;;;;;;5126633;27;20429;-78
2021/04/26 09:29:21;;;;;;;9.10;6.90;;;13.10;1.00;;;;;;5136917;27;20713;-81
2021/04/26 09:32:09;;;;;;;1.53;0.93;;;13.80;1.00;;;;;;5132625;27;20450;-79
2021/04/26 09:34:38;;;;;;;4.13;1.87;;;13.80;1.00;;;;;;5116144;27;20463;-80
2021/04/26 09:37:14;;;;;;;2.93;1.83;;;14.00;1.00;;;;;;5128533;27;20478;-80
2021/04/26 09:39:56;;;;;;;3.53;0.90;;;14.70;1.00;;;;;;5134346;27;20400;-79
2021/04/26 09:42:39;;;;;;;4.47;1.57;;;14.50;1.00;;;;;;5133245;27;20446;-78
2021/04/26 09:45:17;;;;;;;2.27;0.97;;;14.10;1.00;;;;;;5133439;27;20438;-78
2021/04/26 09:47:44;;;;;;;2.57;1.77;;;13.60;1.00;;;;;;5135796;27;20423;-80
2021/04/26 09:50:10;;;;;;;2.40;0.90;;;13.20;1.00;;;;;;5107022;27;20425;-81
2021/04/26 09:52:37;;;;;;;1.97;1.23;;;13.00;1.00;;;;;;5130945;27;21020;-80
2021/04/26 09:55:04;;;;;;;3.13;1.33;;;12.80;1.00;;;;;;5134882;27;20426;-80
2021/04/26 09:57:31;;;;;;;4.67;2.73;;;12.70;1.00;;;;;;5122057;27;21113;-80
2021/04/26 09:59:58;;;;;;;7.87;2.20;;;12.70;1.00;;;;;;5141496;27;20456;-80
2021/04/26 10:02:25;;;;;;;2.63;1.50;;;12.80;1.00;;;;;;5135723;27;20436;-83
2021/04/26 10:04:52;;;;;;;2.83;1.30;;;13.00;1.00;;;;;;5151112;27;20450;-80
2021/04/26 10:07:19;;;;;;;3.20;1.60;;;13.10;1.00;;;;;;5135215;27;20436;-79
2021/04/26 10:09:48;;;;;;;2.90;1.50;;;13.20;1.00;;;;;;5140278;27;20405;-81
2021/04/26 10:12:14;;;;;;;4.07;1.87;;;13.10;1.00;;;;;;5114082;27;20460;-77
2021/04/26 10:14:42;;;;;;;3.53;1.93;;;12.90;1.00;;;;;;5124294;27;20456;-77
2021/04/26 10:17:11;;;;;;;8.40;4.13;;;12.60;1.00;;;;;;5110594;27;20429;-77
2021/04/26 10:19:43;;;;;;;3.20;1.80;;;12.50;1.00;;;;;;5128822;27;20553;-79
2021/04/26 10:22:11;;;;;;;9.00;6.63;;;12.60;1.00;;;;;;5129798;27;20449;-78
2021/04/26 10:24:50;;;;;;;4.40;2.00;;;12.60;1.00;;;;;;5129957;27;20440;-80
2021/04/26 10:27:28;;;;;;;5.67;2.90;;;12.50;1.00;;;;;;5142306;27;21005;-78
2021/04/26 10:30:02;;;;;;;2.97;1.20;;;12.60;1.00;;;;;;5123953;27;21446;-77
2021/04/26 10:32:28;;;;;;;3.63;1.70;;;12.90;1.00;;;;;;5129608;27;20470;-78
2021/04/26 10:35:10;;;;;;;2.50;1.33;;;13.60;1.00;;;;;;5128334;27;20411;-78
2021/04/26 10:37:37;;;;;;;1.23;0.87;;;15.20;1.00;;;;;;5104859;27;20477;-79
2021/04/26 10:40:09;;;;;;;2.20;1.40;;;15.40;1.00;;;;;;5133027;27;20420;-78
2021/04/26 10:42:38;;;;;;;3.83;1.80;;;15.30;1.00;;;;;;5132897;27;20475;-76
2021/04/26 10:45:05;;;;;;;1.97;1.07;;;15.20;1.00;;;;;;5134886;27;20487;-78
2021/04/26 10:47:36;;;;;;;6.57;2.07;;;15.10;1.00;;;;;;5134745;27;20412;-77
2021/04/26 10:50:40;;;;;;;1.73;1.40;;;14.80;1.00;;;;;;5148099;27;20421;-77
2021/04/26 10:53:08;;;;;;;3.30;1.40;;;14.80;1.00;;;;;;5126527;27;20405;-78
2021/04/26 10:55:54;;;;;;;7.17;1.67;;;14.70;1.00;;;;;;5154083;27;20393;-78
2021/04/26 10:58:23;;;;;;;5.23;1.70;;;14.60;1.00;;;;;;5133693;27;20417;-78
2021/04/26 11:00:50;;;;;;;5.33;1.60;;;14.50;1.00;;;;;;5153294;27;21355;-81
2021/04/26 11:03:39;;;;;;;2.90;1.53;;;14.60;1.00;;;;;;5155153;27;20435;-79
2021/04/26 11:06:25;;;;;;;5.43;1.90;;;14.70;1.00;;;;;;5156641;27;20464;-76
2021/04/26 11:09:05;;;;;;;6.53;1.70;;;14.60;1.00;;;;;;5155625;27;20577;-77
2021/04/26 11:11:39;;;;;;;4.60;2.03;;;14.70;1.00;;;;;;5148738;27;20401;-79
2021/04/26 11:14:19;;;;;;;2.40;1.20;;;15.70;1.00;;;;;;5156771;27;20406;-78
2021/04/26 11:16:54;;;;;;;3.43;2.60;;;17.40;1.00;;;;;;5156944;27;20435;-83
2021/04/26 11:19:20;;;;;;;2.70;1.23;;;19.70;1.00;;;;;;5141025;27;20439;-80
2021/04/26 11:22:07;;;;;;;3.50;2.47;;;20.60;1.00;;;;;;5151904;27;20465;-77
2021/04/26 11:25:05;;;;;;;4.13;2.13;;;20.70;1.00;;;;;;5150803;27;20431;-76
2021/04/26 11:27:34;;;;;;;1.80;1.30;;;20.20;1.00;;;;;;5145653;27;20468;-78
2021/04/26 11:30:14;;;;;;;1.93;1.40;;;18.80;1.00;;;;;;5132900;27;20440;-76
2021/04/26 11:33:02;;;;;;;2.43;1.50;;;17.60;1.00;;;;;;5151255;27;20442;-78
2021/04/26 11:35:28;;;;;;;4.90;3.63;;;17.00;1.00;;;;;;5151165;27;20439;-76
2021/04/26 11:37:55;;;;;;;8.37;3.70;;;16.40;1.00;;;;;;5150978;27;20414;-78
2021/04/26 11:40:25;;;;;;;4.40;1.70;;;15.90;1.00;;;;;;5128856;27;20432;-79
2021/04/26 11:42:51;;;;;;;3.60;1.63;;;15.30;1.00;;;;;;5150837;27;20444;-77
2021/04/26 11:45:21;;;;;;;2.80;2.33;;;14.80;1.00;;;;;;5153672;27;20417;-78
2021/04/26 11:47:48;;;;;;;3.73;1.90;;;14.50;1.00;;;;;;5152108;27;20428;-78
2021/04/26 11:50:15;;;;;;;4.30;2.73;;;14.20;1.00;;;;;;5145778;27;20437;-76
2021/04/26 11:52:42;;;;;;;5.90;2.00;;;14.00;1.00;;;;;;5152948;27;20456;-77
2021/04/26 11:55:12;;;;;;;3.90;2.50;;;13.60;1.00;;;;;;5153575;27;20496;-78
2021/04/26 11:57:42;;;;;;;2.43;1.60;;;13.50;1.00;;;;;;5150850;27;20414;-77
2021/04/26 12:00:11;;;;;;;3.67;1.93;;;13.50;1.00;;;;;;5136984;27;20473;-77
2021/04/26 12:02:40;;;;;;;5.93;1.63;;;13.50;1.00;;;;;;5153803;27;20400;-77
2021/04/26 12:05:08;;;;;;;3.57;2.67;;;13.60;1.00;;;;;;5147808;27;20448;-78
2021/04/26 12:07:35;;;;;;;8.70;2.77;;;13.60;1.00;;;;;;5151183;27;20401;-76
2021/04/26 12:10:04;;;;;;;2.93;1.40;;;14.00;1.00;;;;;;5128570;27;20479;-77
2021/04/26 12:12:33;;;;;;;3.30;1.97;;;14.20;1.00;;;;;;5144900;27;20454;-79
2021/04/26 12:15:06;;;;;;;4.50;2.10;;;14.40;1.00;;;;;;5128350;27;20534;-84
2021/04/26 12:17:34;;;;;;;7.93;2.50;;;14.50;1.00;;;;;;5127273;27;20530;-81
2021/04/26 12:20:08;;;;;;;4.37;1.87;;;14.70;1.00;;;;;;5146260;27;20603;-83
2021/04/26 12:22:35;;;;;;;2.67;1.50;;;14.80;1.00;;;;;;5137842;27;20465;-83
2021/04/26 12:25:05;;;;;;;3.00;1.87;;;15.20;1.00;;;;;;5142121;27;20908;-82
2021/04/26 12:27:31;;;;;;;4.37;2.20;;;15.40;1.00;;;;;;5153890;27;20475;-83
2021/04/26 12:30:14;;;;;;;3.10;1.40;;;15.60;1.00;;;;;;5152230;27;20447;-83
2021/04/26 12:32:42;;;;;;;1.70;1.60;;;15.50;1.00;;;;;;5118965;27;20781;-84
2021/04/26 12:35:13;;;;;;;2.97;2.27;;;15.40;1.00;;;;;;5133944;27;20514;-86
2021/04/26 12:37:46;;;;;;;4.13;1.80;;;15.80;1.00;;;;;;5143197;27;20452;-86
2021/04/26 12:40:28;;;;;;;2.30;1.30;;;16.60;1.00;;;;;;5212165;22;20433;-82
2021/04/26 12:43:32;;;;;;;3.43;1.80;;;16.70;1.00;;;;;;5038722;28;20438;-86
2021/04/26 12:46:18;;;;;;;2.40;1.10;;;17.20;1.00;;;;;;5053390;28;20663;-84
2021/04/26 12:48:44;;;;;;;3.00;1.60;;;18.80;1.00;;;;;;5024646;28;20414;-80
2021/04/26 12:51:28;;;;;;;2.30;1.67;;;21.00;1.00;;;;;;5022823;28;20463;-84
2021/04/26 12:54:08;;;;;;;2.67;1.77;;;21.90;1.00;;;;;;5044134;28;20495;-84
2021/04/26 12:56:37;;;;;;;2.70;1.30;;;21.10;1.00;;;;;;5060264;27;20431;-86
2021/04/26 12:59:06;;;;;;;2.47;1.47;;;20.90;1.00;;;;;;5049152;28;20412;-85
2021/04/26 13:04:10;;;;;;;4.07;1.40;;;21.00;1.00;;;;;;5321043;22;20427;-83
2021/04/26 13:06:43;;;;;;;5.13;1.37;;;20.10;1.00;;;;;;5121878;27;20452;-81
2021/04/26 13:09:12;;;;;;;5.27;2.13;;;19.10;1.00;;;;;;5142237;27;20459;-84
2021/04/26 13:11:46;;;;;;;3.30;2.30;;;18.30;1.00;;;;;;5120885;27;20454;-83
2021/04/26 13:14:23;;;;;;;4.50;2.20;;;17.60;1.00;;;;;;5123220;27;20411;-83
2021/04/26 13:17:00;;;;;;;4.63;3.03;;;16.60;1.00;;;;;;5137452;27;20427;-83